sensor_id;sensor_type;location;lat;lon;timestamp;P1;durP1;ratioP1;P2;durP2;ratioP2
50367;SDS011;36281;34.132;-118.018;2023-08-21T00:00:14;8.25;;;5.68;;
50367;SDS011;36281;34.132;-118.018;2023-08-21T00:02:45;7.32;;;5.07;;
50367;SDS011;36281;34.132;-118.018;2023-08-21T00:05:14;7.10;;;5.15;;
50367;SDS011;36281;34.132;-118.018;2023-08-21T00:07:43;6.45;;;4.60;;
50367;SDS011;36281;34.132;-118.018;2023-08-21T00:10:14;7.70;;;4.63;;
50367;SDS011;36281;34.132;-118.018;2023-08-21T00:12:43;6.15;;;4.15;;
50367;SDS011;36281;34.132;-118.018;2023-08-21T00:15:12;5.25;;;3.95;;
50367;SDS011;36281;34.132;-118.018;2023-08-21T00:17:41;7.28;;;4.07;;
50367;SDS011;36281;34.132;-118.018;2023-08-21T00:20:12;4.93;;;3.40;;
50367;SDS011;36281;34.132;-118.018;2023-08-21T00:22:41;5.72;;;3.58;;
50367;SDS011;36281;34.132;-118.018;2023-08-21T00:25:10;4.75;;;3.42;;
50367;SDS011;36281;34.132;-118.018;2023-08-21T00:27:39;6.50;;;3.40;;
50367;SDS011;36281;34.132;-118.018;2023-08-21T00:30:09;5.45;;;3.50;;
50367;SDS011;36281;34.132;-118.018;2023-08-21T00:32:38;5.03;;;3.30;;
50367;SDS011;36281;34.132;-118.018;2023-08-21T00:35:07;5.80;;;3.38;;
50367;SDS011;36281;34.132;-118.018;2023-08-21T00:37:38;4.38;;;3.53;;
50367;SDS011;36281;34.132;-118.018;2023-08-21T00:40:08;5.53;;;3.83;;
50367;SDS011;36281;34.132;-118.018;2023-08-21T00:42:37;4.68;;;3.53;;
50367;SDS011;36281;34.132;-118.018;2023-08-21T00:45:07;5.03;;;3.42;;
50367;SDS011;36281;34.132;-118.018;2023-08-21T00:47:36;6.38;;;3.78;;
50367;SDS011;36281;34.132;-118.018;2023-08-21T00:50:06;5.50;;;3.50;;
50367;SDS011;36281;34.132;-118.018;2023-08-21T00:52:38;4.88;;;3.20;;
50367;SDS011;36281;34.132;-118.018;2023-08-21T00:55:08;5.72;;;3.60;;
50367;SDS011;36281;34.132;-118.018;2023-08-21T00:57:38;5.13;;;3.25;;
50367;SDS011;36281;34.132;-118.018;2023-08-21T01:00:07;5.60;;;2.88;;
50367;SDS011;36281;34.132;-118.018;2023-08-21T01:02:40;3.95;;;2.78;;
50367;SDS011;36281;34.132;-118.018;2023-08-21T01:05:11;7.15;;;2.50;;
50367;SDS011;36281;34.132;-118.018;2023-08-21T01:07:45;4.38;;;2.35;;
50367;SDS011;36281;34.132;-118.018;2023-08-21T01:10:22;3.38;;;2.10;;
50367;SDS011;36281;34.132;-118.018;2023-08-21T01:13:00;4.40;;;1.90;;
50367;SDS011;36281;34.132;-118.018;2023-08-21T01:15:34;5.35;;;2.00;;
50367;SDS011;36281;34.132;-118.018;2023-08-21T01:18:06;3.35;;;2.03;;
50367;SDS011;36281;34.132;-118.018;2023-08-21T01:20:37;3.38;;;2.05;;
50367;SDS011;36281;34.132;-118.018;2023-08-21T01:23:09;3.75;;;1.85;;
50367;SDS011;36281;34.132;-118.018;2023-08-21T01:25:39;4.72;;;2.10;;
50367;SDS011;36281;34.132;-118.018;2023-08-21T01:28:08;4.78;;;2.83;;
50367;SDS011;36281;34.132;-118.018;2023-08-21T01:30:37;5.65;;;2.75;;
50367;SDS011;36281;34.132;-118.018;2023-08-21T01:33:08;4.30;;;3.17;;
50367;SDS011;36281;34.132;-118.018;2023-08-21T01:35:41;4.82;;;3.25;;
50367;SDS011;36281;34.132;-118.018;2023-08-21T01:38:10;3.95;;;3.45;;
50367;SDS011;36281;34.132;-118.018;2023-08-21T01:40:41;6.13;;;3.10;;
50367;SDS011;36281;34.132;-118.018;2023-08-21T01:43:10;4.78;;;2.90;;
50367;SDS011;36281;34.132;-118.018;2023-08-21T01:45:39;3.38;;;2.60;;
50367;SDS011;36281;34.132;-118.018;2023-08-21T01:48:09;3.88;;;2.97;;
50367;SDS011;36281;34.132;-118.018;2023-08-21T01:50:38;4.93;;;2.70;;
50367;SDS011;36281;34.132;-118.018;2023-08-21T01:53:07;4.07;;;2.45;;
50367;SDS011;36281;34.132;-118.018;2023-08-21T01:55:36;3.42;;;2.33;;
50367;SDS011;36281;34.132;-118.018;2023-08-21T01:58:07;3.30;;;2.20;;
50367;SDS011;36281;34.132;-118.018;2023-08-21T02:00:36;5.65;;;2.40;;
50367;SDS011;36281;34.132;-118.018;2023-08-21T02:03:05;3.25;;;1.95;;
50367;SDS011;36281;34.132;-118.018;2023-08-21T02:05:37;1.77;;;1.42;;
50367;SDS011;36281;34.132;-118.018;2023-08-21T02:08:11;1.88;;;1.40;;
50367;SDS011;36281;34.132;-118.018;2023-08-21T02:10:48;1.80;;;1.48;;
50367;SDS011;36281;34.132;-118.018;2023-08-21T02:13:19;2.55;;;1.52;;
50367;SDS011;36281;34.132;-118.018;2023-08-21T02:15:48;3.05;;;1.65;;
50367;SDS011;36281;34.132;-118.018;2023-08-21T02:18:17;1.50;;;1.38;;
50367;SDS011;36281;34.132;-118.018;2023-08-21T02:20:47;1.95;;;1.38;;
50367;SDS011;36281;34.132;-118.018;2023-08-21T02:23:17;1.05;;;0.90;;
50367;SDS011;36281;34.132;-118.018;2023-08-21T02:25:46;1.13;;;0.93;;
50367;SDS011;36281;34.132;-118.018;2023-08-21T02:28:16;3.25;;;1.40;;
50367;SDS011;36281;34.132;-118.018;2023-08-21T02:30:47;1.40;;;1.30;;
50367;SDS011;36281;34.132;-118.018;2023-08-21T02:33:16;1.25;;;0.98;;
50367;SDS011;36281;34.132;-118.018;2023-08-21T02:35:45;1.60;;;1.15;;
50367;SDS011;36281;34.132;-118.018;2023-08-21T02:38:14;1.20;;;1.10;;
50367;SDS011;36281;34.132;-118.018;2023-08-21T02:40:43;1.83;;;1.20;;
50367;SDS011;36281;34.132;-118.018;2023-08-21T02:43:12;0.90;;;0.90;;
50367;SDS011;36281;34.132;-118.018;2023-08-21T02:45:43;1.42;;;0.80;;
50367;SDS011;36281;34.132;-118.018;2023-08-21T02:48:12;2.75;;;0.93;;
50367;SDS011;36281;34.132;-118.018;2023-08-21T02:50:41;0.80;;;0.77;;
50367;SDS011;36281;34.132;-118.018;2023-08-21T02:53:10;1.52;;;1.13;;
50367;SDS011;36281;34.132;-118.018;2023-08-21T02:55:39;1.52;;;1.30;;
50367;SDS011;36281;34.132;-118.018;2023-08-21T02:58:08;2.92;;;1.48;;
50367;SDS011;36281;34.132;-118.018;2023-08-21T03:00:37;1.73;;;1.40;;
50367;SDS011;36281;34.132;-118.018;2023-08-21T03:03:08;2.75;;;1.35;;
50367;SDS011;36281;34.132;-118.018;2023-08-21T03:05:37;1.83;;;1.40;;
50367;SDS011;36281;34.132;-118.018;2023-08-21T03:08:06;1.45;;;1.35;;
50367;SDS011;36281;34.132;-118.018;2023-08-21T03:10:35;2.95;;;1.50;;
50367;SDS011;36281;34.132;-118.018;2023-08-21T03:13:04;1.92;;;1.33;;
50367;SDS011;36281;34.132;-118.018;2023-08-21T03:15:34;2.83;;;1.70;;
50367;SDS011;36281;34.132;-118.018;2023-08-21T03:18:03;2.10;;;1.70;;
50367;SDS011;36281;34.132;-118.018;2023-08-21T03:20:34;3.97;;;1.67;;
50367;SDS011;36281;34.132;-118.018;2023-08-21T03:23:03;4.55;;;2.10;;
50367;SDS011;36281;34.132;-118.018;2023-08-21T03:25:32;3.35;;;1.85;;
50367;SDS011;36281;34.132;-118.018;2023-08-21T03:28:01;2.78;;;1.60;;
50367;SDS011;36281;34.132;-118.018;2023-08-21T03:30:31;3.28;;;1.90;;
50367;SDS011;36281;34.132;-118.018;2023-08-21T03:33:00;3.42;;;1.88;;
50367;SDS011;36281;34.132;-118.018;2023-08-21T03:35:29;1.92;;;1.58;;
50367;SDS011;36281;34.132;-118.018;2023-08-21T03:38:00;2.92;;;1.80;;
50367;SDS011;36281;34.132;-118.018;2023-08-21T03:40:29;2.33;;;1.42;;
50367;SDS011;36281;34.132;-118.018;2023-08-21T03:42:58;2.58;;;1.88;;
50367;SDS011;36281;34.132;-118.018;2023-08-21T03:45:27;1.60;;;1.50;;
50367;SDS011;36281;34.132;-118.018;2023-08-21T03:47:56;3.72;;;1.70;;
50367;SDS011;36281;34.132;-118.018;2023-08-21T03:50:25;2.15;;;1.35;;
50367;SDS011;36281;34.132;-118.018;2023-08-21T03:52:54;2.25;;;1.27;;
50367;SDS011;36281;34.132;-118.018;2023-08-21T03:55:24;1.45;;;1.35;;
50367;SDS011;36281;34.132;-118.018;2023-08-21T03:57:54;1.20;;;1.10;;
50367;SDS011;36281;34.132;-118.018;2023-08-21T04:00:23;1.35;;;1.15;;
50367;SDS011;36281;34.132;-118.018;2023-08-21T04:02:51;1.42;;;1.33;;
50367;SDS011;36281;34.132;-118.018;2023-08-21T04:05:20;2.45;;;1.08;;
50367;SDS011;36281;34.132;-118.018;2023-08-21T04:07:50;0.88;;;0.80;;
50367;SDS011;36281;34.132;-118.018;2023-08-21T04:10:19;1.40;;;1.30;;
50367;SDS011;36281;34.132;-118.018;2023-08-21T04:12:49;1.08;;;1.00;;
50367;SDS011;36281;34.132;-118.018;2023-08-21T04:15:18;1.13;;;1.02;;
50367;SDS011;36281;34.132;-118.018;2023-08-21T04:17:47;1.10;;;1.00;;
50367;SDS011;36281;34.132;-118.018;2023-08-21T04:20:17;1.00;;;1.00;;
50367;SDS011;36281;34.132;-118.018;2023-08-21T04:22:47;1.15;;;1.05;;
50367;SDS011;36281;34.132;-118.018;2023-08-21T04:25:16;0.85;;;0.85;;
50367;SDS011;36281;34.132;-118.018;2023-08-21T04:27:45;2.33;;;1.40;;
50367;SDS011;36281;34.132;-118.018;2023-08-21T04:30:16;1.42;;;1.20;;
50367;SDS011;36281;34.132;-118.018;2023-08-21T04:32:45;0.90;;;0.90;;
50367;SDS011;36281;34.132;-118.018;2023-08-21T04:35:14;1.83;;;0.77;;
50367;SDS011;36281;34.132;-118.018;2023-08-21T04:37:45;1.23;;;1.10;;
50367;SDS011;36281;34.132;-118.018;2023-08-21T04:40:15;2.50;;;1.00;;
50367;SDS011;36281;34.132;-118.018;2023-08-21T04:42:47;3.05;;;1.30;;
50367;SDS011;36281;34.132;-118.018;2023-08-21T04:45:18;2.10;;;1.45;;
50367;SDS011;36281;34.132;-118.018;2023-08-21T04:47:47;2.30;;;1.30;;
50367;SDS011;36281;34.132;-118.018;2023-08-21T04:50:16;1.77;;;1.35;;
50367;SDS011;36281;34.132;-118.018;2023-08-21T04:52:45;3.88;;;1.80;;
50367;SDS011;36281;34.132;-118.018;2023-08-21T04:55:16;4.00;;;2.05;;
50367;SDS011;36281;34.132;-118.018;2023-08-21T04:57:45;5.80;;;2.00;;
50367;SDS011;36281;34.132;-118.018;2023-08-21T05:00:14;7.78;;;2.33;;
50367;SDS011;36281;34.132;-118.018;2023-08-21T05:02:46;9.35;;;3.22;;
50367;SDS011;36281;34.132;-118.018;2023-08-21T05:05:15;6.40;;;3.40;;
50367;SDS011;36281;34.132;-118.018;2023-08-21T05:07:44;10.95;;;3.55;;
50367;SDS011;36281;34.132;-118.018;2023-08-21T05:10:13;9.23;;;4.40;;
50367;SDS011;36281;34.132;-118.018;2023-08-21T05:12:42;7.93;;;4.70;;
50367;SDS011;36281;34.132;-118.018;2023-08-21T05:15:11;7.68;;;4.90;;
50367;SDS011;36281;34.132;-118.018;2023-08-21T05:17:40;9.93;;;5.03;;
50367;SDS011;36281;34.132;-118.018;2023-08-21T05:20:11;9.18;;;5.00;;
50367;SDS011;36281;34.132;-118.018;2023-08-21T05:22:42;10.85;;;5.30;;
50367;SDS011;36281;34.132;-118.018;2023-08-21T05:25:11;8.00;;;5.03;;
50367;SDS011;36281;34.132;-118.018;2023-08-21T05:27:40;10.00;;;5.03;;
50367;SDS011;36281;34.132;-118.018;2023-08-21T05:30:09;7.13;;;4.60;;
50367;SDS011;36281;34.132;-118.018;2023-08-21T05:32:41;6.22;;;4.60;;
50367;SDS011;36281;34.132;-118.018;2023-08-21T05:35:12;5.63;;;4.55;;
50367;SDS011;36281;34.132;-118.018;2023-08-21T05:37:41;7.05;;;4.53;;
50367;SDS011;36281;34.132;-118.018;2023-08-21T05:40:10;4.60;;;3.63;;
50367;SDS011;36281;34.132;-118.018;2023-08-21T05:42:40;4.57;;;2.60;;
50367;SDS011;36281;34.132;-118.018;2023-08-21T05:45:09;4.95;;;2.70;;
50367;SDS011;36281;34.132;-118.018;2023-08-21T05:47:38;3.88;;;2.42;;
50367;SDS011;36281;34.132;-118.018;2023-08-21T05:50:07;4.45;;;2.63;;
50367;SDS011;36281;34.132;-118.018;2023-08-21T05:52:39;3.95;;;2.60;;
50367;SDS011;36281;34.132;-118.018;2023-08-21T05:55:09;5.20;;;2.67;;
50367;SDS011;36281;34.132;-118.018;2023-08-21T05:57:38;6.07;;;3.00;;
50367;SDS011;36281;34.132;-118.018;2023-08-21T06:00:08;5.78;;;3.33;;
50367;SDS011;36281;34.132;-118.018;2023-08-21T06:02:37;5.85;;;3.60;;
50367;SDS011;36281;34.132;-118.018;2023-08-21T06:05:07;7.50;;;4.07;;
50367;SDS011;36281;34.132;-118.018;2023-08-21T06:07:36;6.70;;;3.97;;
50367;SDS011;36281;34.132;-118.018;2023-08-21T06:10:10;8.75;;;4.20;;
50367;SDS011;36281;34.132;-118.018;2023-08-21T06:12:40;12.07;;;4.75;;
50367;SDS011;36281;34.132;-118.018;2023-08-21T06:15:10;10.07;;;5.15;;
50367;SDS011;36281;34.132;-118.018;2023-08-21T06:17:39;10.48;;;4.82;;
50367;SDS011;36281;34.132;-118.018;2023-08-21T06:20:09;9.95;;;4.50;;
50367;SDS011;36281;34.132;-118.018;2023-08-21T06:22:43;12.18;;;5.07;;
50367;SDS011;36281;34.132;-118.018;2023-08-21T06:25:12;11.68;;;7.35;;
50367;SDS011;36281;34.132;-118.018;2023-08-21T06:27:41;16.48;;;7.80;;
50367;SDS011;36281;34.132;-118.018;2023-08-21T06:30:24;16.77;;;8.30;;
50367;SDS011;36281;34.132;-118.018;2023-08-21T06:32:54;9.35;;;4.82;;
50367;SDS011;36281;34.132;-118.018;2023-08-21T06:35:23;4.90;;;2.47;;
50367;SDS011;36281;34.132;-118.018;2023-08-21T06:37:54;2.50;;;1.48;;
50367;SDS011;36281;34.132;-118.018;2023-08-21T06:40:23;1.95;;;0.90;;
50367;SDS011;36281;34.132;-118.018;2023-08-21T06:42:52;0.80;;;0.80;;
50367;SDS011;36281;34.132;-118.018;2023-08-21T06:45:21;1.50;;;0.90;;
50367;SDS011;36281;34.132;-118.018;2023-08-21T06:47:50;1.10;;;0.60;;
50367;SDS011;36281;34.132;-118.018;2023-08-21T06:50:19;1.05;;;0.57;;
50367;SDS011;36281;34.132;-118.018;2023-08-21T06:52:48;0.77;;;0.77;;
50367;SDS011;36281;34.132;-118.018;2023-08-21T06:55:19;0.35;;;0.35;;
50367;SDS011;36281;34.132;-118.018;2023-08-21T06:57:48;1.25;;;0.63;;
50367;SDS011;36281;34.132;-118.018;2023-08-21T07:00:17;0.95;;;0.60;;
50367;SDS011;36281;34.132;-118.018;2023-08-21T07:02:46;1.35;;;0.93;;
50367;SDS011;36281;34.132;-118.018;2023-08-21T07:05:16;0.68;;;0.68;;
50367;SDS011;36281;34.132;-118.018;2023-08-21T07:07:45;0.65;;;0.65;;
50367;SDS011;36281;34.132;-118.018;2023-08-21T07:10:14;1.33;;;1.17;;
50367;SDS011;36281;34.132;-118.018;2023-08-21T07:12:44;1.20;;;1.10;;
50367;SDS011;36281;34.132;-118.018;2023-08-21T07:15:14;2.53;;;1.60;;
50367;SDS011;36281;34.132;-118.018;2023-08-21T07:17:43;2.22;;;1.52;;
50367;SDS011;36281;34.132;-118.018;2023-08-21T07:20:12;2.30;;;1.90;;
50367;SDS011;36281;34.132;-118.018;2023-08-21T07:22:41;2.00;;;1.80;;
50367;SDS011;36281;34.132;-118.018;2023-08-21T07:25:10;2.10;;;1.90;;
50367;SDS011;36281;34.132;-118.018;2023-08-21T07:27:39;2.10;;;1.90;;
50367;SDS011;36281;34.132;-118.018;2023-08-21T07:30:10;2.42;;;2.00;;
50367;SDS011;36281;34.132;-118.018;2023-08-21T07:32:39;2.35;;;2.15;;
50367;SDS011;36281;34.132;-118.018;2023-08-21T07:35:08;4.63;;;2.20;;
50367;SDS011;36281;34.132;-118.018;2023-08-21T07:37:38;3.20;;;2.50;;
50367;SDS011;36281;34.132;-118.018;2023-08-21T07:40:08;2.90;;;2.30;;
50367;SDS011;36281;34.132;-118.018;2023-08-21T07:42:38;3.90;;;2.53;;
50367;SDS011;36281;34.132;-118.018;2023-08-21T07:45:07;3.13;;;2.60;;
50367;SDS011;36281;34.132;-118.018;2023-08-21T07:47:38;2.78;;;2.40;;
50367;SDS011;36281;34.132;-118.018;2023-08-21T07:50:08;2.38;;;2.17;;
50367;SDS011;36281;34.132;-118.018;2023-08-21T07:52:37;2.40;;;2.20;;
50367;SDS011;36281;34.132;-118.018;2023-08-21T07:55:07;3.03;;;2.45;;
50367;SDS011;36281;34.132;-118.018;2023-08-21T07:57:36;3.60;;;2.35;;
50367;SDS011;36281;34.132;-118.018;2023-08-21T08:00:06;4.13;;;2.75;;
50367;SDS011;36281;34.132;-118.018;2023-08-21T08:02:38;3.30;;;2.60;;
50367;SDS011;36281;34.132;-118.018;2023-08-21T08:05:07;2.90;;;2.10;;
50367;SDS011;36281;34.132;-118.018;2023-08-21T08:07:37;3.40;;;2.50;;
50367;SDS011;36281;34.132;-118.018;2023-08-21T08:10:06;3.90;;;2.20;;
50367;SDS011;36281;34.132;-118.018;2023-08-21T08:12:35;1.98;;;1.75;;
50367;SDS011;36281;34.132;-118.018;2023-08-21T08:15:05;3.90;;;1.90;;
50367;SDS011;36281;34.132;-118.018;2023-08-21T08:17:35;2.80;;;2.00;;
50367;SDS011;36281;34.132;-118.018;2023-08-21T08:20:06;2.85;;;2.05;;
50367;SDS011;36281;34.132;-118.018;2023-08-21T08:22:35;5.50;;;2.40;;
50367;SDS011;36281;34.132;-118.018;2023-08-21T08:25:05;3.05;;;2.10;;
50367;SDS011;36281;34.132;-118.018;2023-08-21T08:27:35;3.83;;;2.00;;
50367;SDS011;36281;34.132;-118.018;2023-08-21T08:30:04;2.67;;;2.20;;
50367;SDS011;36281;34.132;-118.018;2023-08-21T08:32:34;2.60;;;1.80;;
50367;SDS011;36281;34.132;-118.018;2023-08-21T08:35:06;3.65;;;1.88;;
50367;SDS011;36281;34.132;-118.018;2023-08-21T08:37:35;3.28;;;2.03;;
50367;SDS011;36281;34.132;-118.018;2023-08-21T08:40:05;2.95;;;2.00;;
50367;SDS011;36281;34.132;-118.018;2023-08-21T08:42:35;3.05;;;2.00;;
50367;SDS011;36281;34.132;-118.018;2023-08-21T08:45:05;2.38;;;1.70;;
50367;SDS011;36281;34.132;-118.018;2023-08-21T08:47:35;2.40;;;1.73;;
50367;SDS011;36281;34.132;-118.018;2023-08-21T08:50:06;2.05;;;1.60;;
50367;SDS011;36281;34.132;-118.018;2023-08-21T08:52:39;1.38;;;1.27;;
50367;SDS011;36281;34.132;-118.018;2023-08-21T08:55:08;1.63;;;1.48;;
50367;SDS011;36281;34.132;-118.018;2023-08-21T08:57:38;1.85;;;1.45;;
50367;SDS011;36281;34.132;-118.018;2023-08-21T09:00:07;1.75;;;1.60;;
50367;SDS011;36281;34.132;-118.018;2023-08-21T09:02:37;1.58;;;1.35;;
50367;SDS011;36281;34.132;-118.018;2023-08-21T09:05:08;2.55;;;1.67;;
50367;SDS011;36281;34.132;-118.018;2023-08-21T09:07:38;2.13;;;1.27;;
50367;SDS011;36281;34.132;-118.018;2023-08-21T09:10:12;2.15;;;1.60;;
50367;SDS011;36281;34.132;-118.018;2023-08-21T09:12:45;2.05;;;1.63;;
50367;SDS011;36281;34.132;-118.018;2023-08-21T09:15:14;1.65;;;1.40;;
50367;SDS011;36281;34.132;-118.018;2023-08-21T09:17:43;2.28;;;1.70;;
50367;SDS011;36281;34.132;-118.018;2023-08-21T09:20:22;1.70;;;1.60;;
50367;SDS011;36281;34.132;-118.018;2023-08-21T09:22:53;2.08;;;1.80;;
50367;SDS011;36281;34.132;-118.018;2023-08-21T09:25:25;1.40;;;1.30;;
50367;SDS011;36281;34.132;-118.018;2023-08-21T09:27:54;1.80;;;1.60;;
50367;SDS011;36281;34.132;-118.018;2023-08-21T09:30:24;1.48;;;1.38;;
50367;SDS011;36281;34.132;-118.018;2023-08-21T09:32:54;1.60;;;1.50;;
50367;SDS011;36281;34.132;-118.018;2023-08-21T09:35:25;1.30;;;1.30;;
50367;SDS011;36281;34.132;-118.018;2023-08-21T09:37:55;1.83;;;1.63;;
50367;SDS011;36281;34.132;-118.018;2023-08-21T09:40:24;1.58;;;1.38;;
50367;SDS011;36281;34.132;-118.018;2023-08-21T09:42:53;3.08;;;1.80;;
50367;SDS011;36281;34.132;-118.018;2023-08-21T09:45:23;2.92;;;1.50;;
50367;SDS011;36281;34.132;-118.018;2023-08-21T09:47:53;2.28;;;1.70;;
50367;SDS011;36281;34.132;-118.018;2023-08-21T09:50:22;2.33;;;1.70;;
50367;SDS011;36281;34.132;-118.018;2023-08-21T09:52:54;2.15;;;1.67;;
50367;SDS011;36281;34.132;-118.018;2023-08-21T09:55:24;2.20;;;2.00;;
50367;SDS011;36281;34.132;-118.018;2023-08-21T09:57:54;1.67;;;1.58;;
50367;SDS011;36281;34.132;-118.018;2023-08-21T10:00:27;1.92;;;1.60;;
50367;SDS011;36281;34.132;-118.018;2023-08-21T10:03:00;1.92;;;1.73;;
50367;SDS011;36281;34.132;-118.018;2023-08-21T10:05:33;2.10;;;1.73;;
50367;SDS011;36281;34.132;-118.018;2023-08-21T10:08:04;3.08;;;1.67;;
50367;SDS011;36281;34.132;-118.018;2023-08-21T10:10:34;2.00;;;1.80;;
50367;SDS011;36281;34.132;-118.018;2023-08-21T10:13:04;2.47;;;1.60;;
50367;SDS011;36281;34.132;-118.018;2023-08-21T10:15:35;2.28;;;1.77;;
50367;SDS011;36281;34.132;-118.018;2023-08-21T10:18:18;2.53;;;1.70;;
50367;SDS011;36281;34.132;-118.018;2023-08-21T10:20:50;2.42;;;1.85;;
50367;SDS011;36281;34.132;-118.018;2023-08-21T10:23:23;2.40;;;1.75;;
50367;SDS011;36281;34.132;-118.018;2023-08-21T10:25:56;1.92;;;1.70;;
50367;SDS011;36281;34.132;-118.018;2023-08-21T10:34:12;1.67;;;1.58;;
50367;SDS011;36281;34.132;-118.018;2023-08-21T10:39:53;2.28;;;1.90;;
50367;SDS011;36281;34.132;-118.018;2023-08-21T10:42:36;3.05;;;2.10;;
50367;SDS011;36281;34.132;-118.018;2023-08-21T10:45:10;2.40;;;2.20;;
50367;SDS011;36281;34.132;-118.018;2023-08-21T10:47:40;2.20;;;2.00;;
50367;SDS011;36281;34.132;-118.018;2023-08-21T10:50:09;2.55;;;2.10;;
50367;SDS011;36281;34.132;-118.018;2023-08-21T10:52:40;2.58;;;2.38;;
50367;SDS011;36281;34.132;-118.018;2023-08-21T10:55:11;2.88;;;2.20;;
50367;SDS011;36281;34.132;-118.018;2023-08-21T10:57:41;2.45;;;2.22;;
50367;SDS011;36281;34.132;-118.018;2023-08-21T11:00:10;2.97;;;2.45;;
50367;SDS011;36281;34.132;-118.018;2023-08-21T11:02:41;3.53;;;2.88;;
50367;SDS011;36281;34.132;-118.018;2023-08-21T11:05:12;3.42;;;2.63;;
50367;SDS011;36281;34.132;-118.018;2023-08-21T11:07:44;2.95;;;2.55;;
50367;SDS011;36281;34.132;-118.018;2023-08-21T11:10:14;4.88;;;2.65;;
50367;SDS011;36281;34.132;-118.018;2023-08-21T11:12:48;3.10;;;2.70;;
50367;SDS011;36281;34.132;-118.018;2023-08-21T11:15:18;3.67;;;2.53;;
50367;SDS011;36281;34.132;-118.018;2023-08-21T11:17:56;3.28;;;2.78;;
50367;SDS011;36281;34.132;-118.018;2023-08-21T11:20:30;3.22;;;2.55;;
50367;SDS011;36281;34.132;-118.018;2023-08-21T11:23:02;3.97;;;2.90;;
50367;SDS011;36281;34.132;-118.018;2023-08-21T11:25:35;3.60;;;2.92;;
50367;SDS011;36281;34.132;-118.018;2023-08-21T11:28:07;3.42;;;2.75;;
50367;SDS011;36281;34.132;-118.018;2023-08-21T11:30:36;4.47;;;3.40;;
50367;SDS011;36281;34.132;-118.018;2023-08-21T11:33:06;5.38;;;3.47;;
50367;SDS011;36281;34.132;-118.018;2023-08-21T11:35:37;5.53;;;3.50;;
50367;SDS011;36281;34.132;-118.018;2023-08-21T11:38:13;4.80;;;3.55;;
50367;SDS011;36281;34.132;-118.018;2023-08-21T11:40:50;5.25;;;3.30;;
50367;SDS011;36281;34.132;-118.018;2023-08-21T11:43:20;6.20;;;3.80;;
50367;SDS011;36281;34.132;-118.018;2023-08-21T11:45:50;6.97;;;3.65;;
50367;SDS011;36281;34.132;-118.018;2023-08-21T11:48:25;5.80;;;3.50;;
50367;SDS011;36281;34.132;-118.018;2023-08-21T11:50:54;5.55;;;3.70;;
50367;SDS011;36281;34.132;-118.018;2023-08-21T11:53:34;4.82;;;3.38;;
50367;SDS011;36281;34.132;-118.018;2023-08-21T11:56:08;7.18;;;3.58;;
50367;SDS011;36281;34.132;-118.018;2023-08-21T11:58:39;5.20;;;3.90;;
50367;SDS011;36281;34.132;-118.018;2023-08-21T12:01:08;5.18;;;3.95;;
50367;SDS011;36281;34.132;-118.018;2023-08-21T12:03:37;8.15;;;4.18;;
50367;SDS011;36281;34.132;-118.018;2023-08-21T12:06:07;6.38;;;3.88;;
50367;SDS011;36281;34.132;-118.018;2023-08-21T12:08:38;5.68;;;3.60;;
50367;SDS011;36281;34.132;-118.018;2023-08-21T12:11:07;4.75;;;3.60;;
50367;SDS011;36281;34.132;-118.018;2023-08-21T12:13:36;5.30;;;3.92;;
50367;SDS011;36281;34.132;-118.018;2023-08-21T12:16:05;5.18;;;3.97;;
50367;SDS011;36281;34.132;-118.018;2023-08-21T12:18:34;6.05;;;3.88;;
50367;SDS011;36281;34.132;-118.018;2023-08-21T12:21:03;5.30;;;3.92;;
50367;SDS011;36281;34.132;-118.018;2023-08-21T12:23:35;5.07;;;3.58;;
50367;SDS011;36281;34.132;-118.018;2023-08-21T12:26:06;6.00;;;3.70;;
50367;SDS011;36281;34.132;-118.018;2023-08-21T12:28:35;5.45;;;3.58;;
50367;SDS011;36281;34.132;-118.018;2023-08-21T12:31:04;5.88;;;3.55;;
50367;SDS011;36281;34.132;-118.018;2023-08-21T12:33:34;4.88;;;3.63;;
50367;SDS011;36281;34.132;-118.018;2023-08-21T12:36:03;4.80;;;3.65;;
50367;SDS011;36281;34.132;-118.018;2023-08-21T12:38:32;4.68;;;3.70;;
50367;SDS011;36281;34.132;-118.018;2023-08-21T12:41:03;5.68;;;3.65;;
50367;SDS011;36281;34.132;-118.018;2023-08-21T12:43:32;4.20;;;3.45;;
50367;SDS011;36281;34.132;-118.018;2023-08-21T12:46:01;3.97;;;3.58;;
50367;SDS011;36281;34.132;-118.018;2023-08-21T12:48:30;5.13;;;3.63;;
50367;SDS011;36281;34.132;-118.018;2023-08-21T12:50:59;7.00;;;3.33;;
50367;SDS011;36281;34.132;-118.018;2023-08-21T12:53:28;6.53;;;3.35;;
50367;SDS011;36281;34.132;-118.018;2023-08-21T12:55:57;4.00;;;3.40;;
50367;SDS011;36281;34.132;-118.018;2023-08-21T12:58:28;4.22;;;3.35;;
50367;SDS011;36281;34.132;-118.018;2023-08-21T13:00:58;6.10;;;3.95;;
50367;SDS011;36281;34.132;-118.018;2023-08-21T13:03:27;6.07;;;3.67;;
50367;SDS011;36281;34.132;-118.018;2023-08-21T13:05:56;4.45;;;3.60;;
50367;SDS011;36281;34.132;-118.018;2023-08-21T13:08:25;5.18;;;3.78;;
50367;SDS011;36281;34.132;-118.018;2023-08-21T13:10:54;5.55;;;3.78;;
50367;SDS011;36281;34.132;-118.018;2023-08-21T13:13:23;4.47;;;3.60;;
50367;SDS011;36281;34.132;-118.018;2023-08-21T13:15:54;5.78;;;4.13;;
50367;SDS011;36281;34.132;-118.018;2023-08-21T13:18:23;6.20;;;3.95;;
50367;SDS011;36281;34.132;-118.018;2023-08-21T13:20:52;6.82;;;4.22;;
50367;SDS011;36281;34.132;-118.018;2023-08-21T13:23:21;5.45;;;3.70;;
50367;SDS011;36281;34.132;-118.018;2023-08-21T13:25:50;6.75;;;4.05;;
50367;SDS011;36281;34.132;-118.018;2023-08-21T13:28:19;5.13;;;4.25;;
50367;SDS011;36281;34.132;-118.018;2023-08-21T13:30:48;4.13;;;3.72;;
50367;SDS011;36281;34.132;-118.018;2023-08-21T13:33:19;6.47;;;4.30;;
50367;SDS011;36281;34.132;-118.018;2023-08-21T13:35:48;7.25;;;4.20;;
50367;SDS011;36281;34.132;-118.018;2023-08-21T13:38:17;6.80;;;4.20;;
50367;SDS011;36281;34.132;-118.018;2023-08-21T13:40:46;8.68;;;4.00;;
50367;SDS011;36281;34.132;-118.018;2023-08-21T13:43:15;5.60;;;3.67;;
50367;SDS011;36281;34.132;-118.018;2023-08-21T13:45:48;7.18;;;3.78;;
50367;SDS011;36281;34.132;-118.018;2023-08-21T13:48:17;6.22;;;3.80;;
50367;SDS011;36281;34.132;-118.018;2023-08-21T13:50:47;6.47;;;3.85;;
50367;SDS011;36281;34.132;-118.018;2023-08-21T13:53:16;5.13;;;3.90;;
50367;SDS011;36281;34.132;-118.018;2023-08-21T13:55:45;4.32;;;3.63;;
50367;SDS011;36281;34.132;-118.018;2023-08-21T13:58:14;4.25;;;3.33;;
50367;SDS011;36281;34.132;-118.018;2023-08-21T14:00:43;4.78;;;3.63;;
50367;SDS011;36281;34.132;-118.018;2023-08-21T14:03:13;4.15;;;3.42;;
50367;SDS011;36281;34.132;-118.018;2023-08-21T14:05:43;5.05;;;3.63;;
50367;SDS011;36281;34.132;-118.018;2023-08-21T14:08:12;3.80;;;3.45;;
50367;SDS011;36281;34.132;-118.018;2023-08-21T14:10:41;5.82;;;3.55;;
50367;SDS011;36281;34.132;-118.018;2023-08-21T14:13:10;4.88;;;3.88;;
50367;SDS011;36281;34.132;-118.018;2023-08-21T14:15:39;4.63;;;3.60;;
50367;SDS011;36281;34.132;-118.018;2023-08-21T14:18:08;5.63;;;3.53;;
50367;SDS011;36281;34.132;-118.018;2023-08-21T14:20:37;4.53;;;3.47;;
50367;SDS011;36281;34.132;-118.018;2023-08-21T14:23:08;5.80;;;3.50;;
50367;SDS011;36281;34.132;-118.018;2023-08-21T14:25:37;4.20;;;3.55;;
50367;SDS011;36281;34.132;-118.018;2023-08-21T14:28:06;6.63;;;3.65;;
50367;SDS011;36281;34.132;-118.018;2023-08-21T14:30:35;6.60;;;3.38;;
50367;SDS011;36281;34.132;-118.018;2023-08-21T14:33:04;5.13;;;3.80;;